Lisbon, Illinois
Current Conditions -  °F | °C
As of 11:35 AM on Monday 24 Nov 2014 (Local Time) from KC09 Reporting Station
Light Snow Light Snow  
Wind Chill: 18°   Ceiling: 1000
Heat Index: 32°   Visibility: 3mi
Dew Point: 31°   Wind: 28mph
Humidity: 96%   Direction: 270°W
Pressure: 29.38"   Gusts: 36mph
Location:  41.5124°N, 88.5214°W
Report Text: KC09 241735Z AUTO 27024G31KT 3SM -SN BKN010 OVC017 00/00 A2938 RMK AO2 T00011004
Loading
Personal Weather Stations






























Interactive Weather Map New forecast layout! Learn more

10-Day Weather Forecast

Advertisements
Track Severe Weather on mobile